Time;durP1;ratioP1;P1;durP2;ratioP2;P2;SDS_P1;SDS_P2;PMS_P1;PMS_P2;Temp;Humidity;BMP_temperature;BMP_pressure;BME280_temperature;BME280_humidity;BME280_pressure;Samples;Min_cycle;Max_cycle;Signal;HPM_P1;HPM_P2
2023/12/20 00:01:46;;;;;;;;;;;;;;;;;;5001527;28;19992;-69
2023/12/20 00:04:12;;;;;;;;;;;;;;;;;;4988162;28;20318;-69
2023/12/20 00:06:38;;;;;;;;;;;;;;;;;;5006503;28;19925;-68
2023/12/20 00:09:04;;;;;;;;;;;;;;;;;;4998276;28;19929;-68
2023/12/20 00:11:30;;;;;;;;;;;;;;;;;;4990798;28;19926;-68
2023/12/20 00:13:56;;;;;;;;;;;;;;;;;;4984621;28;19925;-68
2023/12/20 00:16:21;;;;;;;;;;;;;;;;;;4980104;28;19930;-68
2023/12/20 00:18:47;;;;;;;;;;;;;;;;;;5004165;28;20367;-68
2023/12/20 00:21:13;;;;;;;;;;;;;;;;;;4990097;28;19931;-68
2023/12/20 00:23:39;;;;;;;;;;;;;;;;;;4970018;28;20001;-68
2023/12/20 00:26:05;;;;;;;;;;;;;;;;;;4992022;28;19938;-68
2023/12/20 00:28:31;;;;;;;;;;;;;;;;;;4987858;28;19929;-68
2023/12/20 00:30:58;;;;;;;;;;;;;;;;;;4982732;28;20291;-68
2023/12/20 00:33:24;;;;;;;;;;;;;;;;;;4985493;28;19930;-69
2023/12/20 00:35:50;;;;;;;;;;;;;;;;;;4988694;28;19940;-69
2023/12/20 00:38:16;;;;;;;;;;;;;;;;;;4990733;28;19925;-67
2023/12/20 00:40:42;;;;;;;;;;;;;;;;;;4973225;28;20390;-68
2023/12/20 00:43:08;;;;;;;;;;;;;;;;;;4986819;28;19925;-67
2023/12/20 00:45:33;;;;;;;;;;;;;;;;;;4970823;28;19929;-68
2023/12/20 00:47:59;;;;;;;;;;;;;;;;;;4972274;28;19921;-68
2023/12/20 00:50:25;;;;;;;;;;;;;;;;;;4996199;28;19921;-68
2023/12/20 00:52:51;;;;;;;;;;;;;;;;;;4989437;28;19925;-68
2023/12/20 00:55:17;;;;;;;;;;;;;;;;;;4992849;28;19929;-68
2023/12/20 00:57:43;;;;;;;;;;;;;;;;;;4987897;28;19929;-68
2023/12/20 01:00:13;;;;;;;;;;;;;;;;;;4983645;28;19932;-67
2023/12/20 01:02:39;;;;;;;;;;;;;;;;;;4980696;28;19932;-69
2023/12/20 01:05:04;;;;;;;;;;;;;;;;;;4998708;28;20275;-69
2023/12/20 01:07:30;;;;;;;;;;;;;;;;;;4984157;28;19929;-69
2023/12/20 01:09:56;;;;;;;;;;;;;;;;;;4995339;28;19925;-69
2023/12/20 01:12:22;;;;;;;;;;;;;;;;;;4993532;28;20020;-68
2023/12/20 01:14:48;;;;;;;;;;;;;;;;;;4979051;28;20295;-68
2023/12/20 01:17:14;;;;;;;;;;;;;;;;;;4990169;28;19921;-68
2023/12/20 01:19:40;;;;;;;;;;;;;;;;;;4985562;28;19933;-68
2023/12/20 01:22:06;;;;;;;;;;;;;;;;;;4990228;28;19933;-68
2023/12/20 01:24:32;;;;;;;;;;;;;;;;;;5003678;28;19921;-68
2023/12/20 01:26:58;;;;;;;;;;;;;;;;;;4991854;28;19974;-68
2023/12/20 01:29:24;;;;;;;;;;;;;;;;;;5006563;28;19965;-68
2023/12/20 01:31:50;;;;;;;;;;;;;;;;;;4995700;28;20452;-68
2023/12/20 01:34:16;;;;;;;;;;;;;;;;;;4989004;28;19933;-68
2023/12/20 01:36:42;;;;;;;;;;;;;;;;;;4992883;28;20359;-68
2023/12/20 01:39:08;;;;;;;;;;;;;;;;;;4996371;28;19925;-68
2023/12/20 01:41:33;;;;;;;;;;;;;;;;;;4991037;28;19926;-68
2023/12/20 01:43:59;;;;;;;;;;;;;;;;;;5004233;28;20059;-68
2023/12/20 01:46:25;;;;;;;;;;;;;;;;;;4995131;28;19951;-69
2023/12/20 01:48:51;;;;;;;;;;;;;;;;;;4987852;28;19929;-69
2023/12/20 01:51:17;;;;;;;;;;;;;;;;;;4991635;28;20273;-69
2023/12/20 01:53:43;;;;;;;;;;;;;;;;;;4989708;28;19925;-68
2023/12/20 01:56:09;;;;;;;;;;;;;;;;;;5009828;28;19922;-68
2023/12/20 01:58:35;;;;;;;;;;;;;;;;;;4987106;28;20279;-68
2023/12/20 02:01:01;;;;;;;;;;;;;;;;;;4986098;28;19925;-69
2023/12/20 02:03:27;;;;;;;;;;;;;;;;;;4978471;28;19921;-68
2023/12/20 02:05:53;;;;;;;;;;;;;;;;;;4992443;28;19925;-67
2023/12/20 02:08:18;;;;;;;;;;;;;;;;;;5006521;28;20491;-68
2023/12/20 02:10:44;;;;;;;;;;;;;;;;;;4996407;28;19933;-68
2023/12/20 02:13:10;;;;;;;;;;;;;;;;;;4993628;28;19922;-67
2023/12/20 02:15:41;;;;;;;;;;;;;;;;;;5008000;28;19934;-68
2023/12/20 02:18:07;;;;;;;;;;;;;;;;;;4988631;28;20567;-68
2023/12/20 02:20:33;;;;;;;;;;;;;;;;;;5010721;28;19925;-67
2023/12/20 02:22:59;;;;;;;;;;;;;;;;;;4983100;28;20043;-68
2023/12/20 02:25:25;;;;;;;;;;;;;;;;;;4988354;28;20561;-68
2023/12/20 02:27:51;;;;;;;;;;;;;;;;;;4986252;28;19953;-67
2023/12/20 02:30:17;;;;;;;;;;;;;;;;;;4990563;28;19925;-67
2023/12/20 02:32:43;;;;;;;;;;;;;;;;;;4993210;28;19953;-68
2023/12/20 02:35:09;;;;;;;;;;;;;;;;;;4991123;28;20445;-68
2023/12/20 02:37:35;;;;;;;;;;;;;;;;;;5010563;28;19933;-68
2023/12/20 02:40:01;;;;;;;;;;;;;;;;;;4985348;28;19932;-68
2023/12/20 02:42:27;;;;;;;;;;;;;;;;;;4999946;28;19926;-69
2023/12/20 02:44:52;;;;;;;;;;;;;;;;;;4977274;28;20370;-69
2023/12/20 02:47:18;;;;;;;;;;;;;;;;;;4991159;28;19933;-69
2023/12/20 02:49:44;;;;;;;;;;;;;;;;;;4992974;28;19929;-69
2023/12/20 02:52:10;;;;;;;;;;;;;;;;;;4979779;28;20057;-69
2023/12/20 02:54:36;;;;;;;;;;;;;;;;;;4990560;28;20435;-67
2023/12/20 02:57:02;;;;;;;;;;;;;;;;;;5010873;28;20008;-68
2023/12/20 02:59:28;;;;;;;;;;;;;;;;;;4992852;28;19932;-67
2023/12/20 03:01:54;;;;;;;;;;;;;;;;;;4986713;28;20012;-67
2023/12/20 03:04:20;;;;;;;;;;;;;;;;;;4981063;28;20344;-68
2023/12/20 03:06:46;;;;;;;;;;;;;;;;;;4990016;28;19932;-68
2023/12/20 03:09:12;;;;;;;;;;;;;;;;;;5004779;28;19925;-68
2023/12/20 03:11:38;;;;;;;;;;;;;;;;;;4990848;28;19922;-68
2023/12/20 03:14:04;;;;;;;;;;;;;;;;;;4986221;28;19934;-68
2023/12/20 03:16:31;;;;;;;;;;;;;;;;;;4986190;28;19925;-68
2023/12/20 03:18:57;;;;;;;;;;;;;;;;;;4994448;28;19972;-68
2023/12/20 03:21:22;;;;;;;;;;;;;;;;;;4999325;28;19921;-68
2023/12/20 03:23:48;;;;;;;;;;;;;;;;;;5011842;28;19925;-68
2023/12/20 03:26:14;;;;;;;;;;;;;;;;;;4985763;28;20445;-68
2023/12/20 03:28:40;;;;;;;;;;;;;;;;;;4978759;28;19921;-68
2023/12/20 03:31:06;;;;;;;;;;;;;;;;;;4993030;28;20764;-68
2023/12/20 03:33:32;;;;;;;;;;;;;;;;;;5006424;28;19925;-68
2023/12/20 03:35:58;;;;;;;;;;;;;;;;;;4973781;28;19945;-68
2023/12/20 03:38:24;;;;;;;;;;;;;;;;;;4991097;28;19952;-69
2023/12/20 03:40:50;;;;;;;;;;;;;;;;;;4986932;28;20016;-69
2023/12/20 03:43:16;;;;;;;;;;;;;;;;;;4997613;28;19926;-68
2023/12/20 03:45:42;;;;;;;;;;;;;;;;;;4995520;28;20307;-68
2023/12/20 03:48:08;;;;;;;;;;;;;;;;;;4995474;28;19967;-68
2023/12/20 03:50:34;;;;;;;;;;;;;;;;;;4991334;28;19926;-68
2023/12/20 03:53:00;;;;;;;;;;;;;;;;;;5004918;28;19933;-68
2023/12/20 03:55:25;;;;;;;;;;;;;;;;;;4991089;28;19933;-68
2023/12/20 03:57:51;;;;;;;;;;;;;;;;;;4997605;28;20364;-68
2023/12/20 04:00:17;;;;;;;;;;;;;;;;;;4986127;28;19925;-69
2023/12/20 04:02:43;;;;;;;;;;;;;;;;;;4997652;28;20029;-68
2023/12/20 04:05:09;;;;;;;;;;;;;;;;;;4987531;28;20013;-67
2023/12/20 04:07:35;;;;;;;;;;;;;;;;;;4983336;28;20012;-67
2023/12/20 04:10:01;;;;;;;;;;;;;;;;;;4984023;28;19948;-68
2023/12/20 04:12:27;;;;;;;;;;;;;;;;;;4987921;28;19967;-68
2023/12/20 04:14:53;;;;;;;;;;;;;;;;;;4987094;28;19925;-67
2023/12/20 04:17:19;;;;;;;;;;;;;;;;;;4980744;28;19936;-67
2023/12/20 04:19:45;;;;;;;;;;;;;;;;;;5010384;28;19998;-67
2023/12/20 04:22:11;;;;;;;;;;;;;;;;;;4992765;28;19944;-68
2023/12/20 04:24:37;;;;;;;;;;;;;;;;;;4999747;28;19922;-68
2023/12/20 04:27:03;;;;;;;;;;;;;;;;;;4986665;28;19921;-68
2023/12/20 04:29:28;;;;;;;;;;;;;;;;;;4990567;28;19932;-68
2023/12/20 04:31:55;;;;;;;;;;;;;;;;;;5002971;28;19925;-68
2023/12/20 04:34:21;;;;;;;;;;;;;;;;;;4994133;28;20019;-68
2023/12/20 04:36:47;;;;;;;;;;;;;;;;;;5001220;28;19977;-68
2023/12/20 04:39:13;;;;;;;;;;;;;;;;;;4989585;28;19977;-69
2023/12/20 04:41:39;;;;;;;;;;;;;;;;;;4986365;28;20465;-69
2023/12/20 04:44:05;;;;;;;;;;;;;;;;;;4985935;28;19925;-69
2023/12/20 04:46:30;;;;;;;;;;;;;;;;;;4984325;28;19965;-68
2023/12/20 04:48:56;;;;;;;;;;;;;;;;;;4988974;28;20077;-68
2023/12/20 04:51:22;;;;;;;;;;;;;;;;;;4979191;28;19929;-68
2023/12/20 04:53:48;;;;;;;;;;;;;;;;;;4997661;28;20357;-68
2023/12/20 04:56:14;;;;;;;;;;;;;;;;;;5008728;28;19933;-68
2023/12/20 04:58:40;;;;;;;;;;;;;;;;;;5004337;28;19996;-68
2023/12/20 05:01:06;;;;;;;;;;;;;;;;;;4974736;28;20335;-68
2023/12/20 05:03:32;;;;;;;;;;;;;;;;;;4991330;28;19922;-68
2023/12/20 05:05:58;;;;;;;;;;;;;;;;;;4983306;28;19932;-68
2023/12/20 05:08:25;;;;;;;;;;;;;;;;;;4992045;28;20567;-68
2023/12/20 05:10:50;;;;;;;;;;;;;;;;;;4988483;28;19922;-68
2023/12/20 05:13:16;;;;;;;;;;;;;;;;;;4986760;28;19926;-68
2023/12/20 05:15:42;;;;;;;;;;;;;;;;;;5005287;28;19948;-69
2023/12/20 05:18:08;;;;;;;;;;;;;;;;;;4985178;28;19922;-67
2023/12/20 05:20:34;;;;;;;;;;;;;;;;;;4995408;28;20842;-66
2023/12/20 05:23:00;;;;;;;;;;;;;;;;;;4989488;28;20426;-67
2023/12/20 05:25:26;;;;;;;;;;;;;;;;;;4974016;28;20362;-68
2023/12/20 05:27:52;;;;;;;;;;;;;;;;;;4993251;28;19921;-69
2023/12/20 05:30:18;;;;;;;;;;;;;;;;;;4997220;28;19928;-68
2023/12/20 05:32:44;;;;;;;;;;;;;;;;;;4996443;28;19979;-67
2023/12/20 05:35:10;;;;;;;;;;;;;;;;;;4997622;28;19929;-68
2023/12/20 05:37:35;;;;;;;;;;;;;;;;;;5010491;28;19921;-68
2023/12/20 05:40:02;;;;;;;;;;;;;;;;;;4990197;28;20358;-68
2023/12/20 05:42:28;;;;;;;;;;;;;;;;;;4992053;28;19936;-69
2023/12/20 05:44:54;;;;;;;;;;;;;;;;;;4999072;28;19929;-68
2023/12/20 05:47:20;;;;;;;;;;;;;;;;;;4995935;28;19922;-68
2023/12/20 05:49:46;;;;;;;;;;;;;;;;;;4995483;28;20465;-69
2023/12/20 05:52:12;;;;;;;;;;;;;;;;;;4987981;28;19932;-69
2023/12/20 05:54:37;;;;;;;;;;;;;;;;;;4985196;28;19925;-69
2023/12/20 05:57:03;;;;;;;;;;;;;;;;;;4977257;23;19933;-69
2023/12/20 05:59:29;;;;;;;;;;;;;;;;;;4950142;28;19973;-69
2023/12/20 06:01:55;;;;;;;;;;;;;;;;;;4949669;29;19927;-69
2023/12/20 06:04:21;;;;;;;;;;;;;;;;;;4949662;29;20392;-70
2023/12/20 06:06:47;;;;;;;;;;;;;;;;;;4944404;29;20008;-70
2023/12/20 06:09:15;;;;;;;;;;;;;;;;;;4952671;29;19961;-70
2023/12/20 06:11:40;;;;;;;;;;;;;;;;;;4950900;28;19922;-70
2023/12/20 06:14:06;;;;;;;;;;;;;;;;;;4948844;28;19933;-69
2023/12/20 06:16:32;;;;;;;;;;;;;;;;;;4951317;28;20017;-69
2023/12/20 06:18:58;;;;;;;;;;;;;;;;;;4952604;29;19935;-69
2023/12/20 06:21:24;;;;;;;;;;;;;;;;;;4951085;29;19923;-71
2023/12/20 06:23:50;;;;;;;;;;;;;;;;;;4951821;28;20323;-70
2023/12/20 06:26:16;;;;;;;;;;;;;;;;;;4950360;28;19922;-70
2023/12/20 06:28:42;;;;;;;;;;;;;;;;;;4949309;29;19941;-69
2023/12/20 06:31:08;;;;;;;;;;;;;;;;;;4954908;28;19922;-69
2023/12/20 06:33:34;;;;;;;;;;;;;;;;;;4960265;28;20383;-69
2023/12/20 06:36:00;;;;;;;;;;;;;;;;;;4953470;29;19968;-69
2023/12/20 06:38:26;;;;;;;;;;;;;;;;;;4949870;28;20021;-69
2023/12/20 06:40:52;;;;;;;;;;;;;;;;;;4947881;28;20013;-69
2023/12/20 06:43:18;;;;;;;;;;;;;;;;;;4948705;29;19923;-69
2023/12/20 06:45:44;;;;;;;;;;;;;;;;;;4952634;29;19922;-68
2023/12/20 06:48:13;;;;;;;;;;;;;;;;;;4948853;28;20371;-69
2023/12/20 06:50:39;;;;;;;;;;;;;;;;;;4943921;28;20677;-70
2023/12/20 06:53:06;;;;;;;;;;;;;;;;;;4947049;28;20005;-69
2023/12/20 06:55:32;;;;;;;;;;;;;;;;;;4965990;28;19943;-69
2023/12/20 06:57:58;;;;;;;;;;;;;;;;;;4944206;28;20272;-70
2023/12/20 07:00:24;;;;;;;;;;;;;;;;;;4950041;28;19930;-70
2023/12/20 07:02:50;;;;;;;;;;;;;;;;;;4948632;28;19999;-70
2023/12/20 07:05:16;;;;;;;;;;;;;;;;;;4952546;28;19927;-70
2023/12/20 07:07:42;;;;;;;;;;;;;;;;;;4947435;28;20258;-70
2023/12/20 07:10:08;;;;;;;;;;;;;;;;;;4958324;28;19922;-70
2023/12/20 07:12:34;;;;;;;;;;;;;;;;;;4950492;28;19923;-69
2023/12/20 07:15:00;;;;;;;;;;;;;;;;;;4962673;28;19931;-70
2023/12/20 07:17:25;;;;;;;;;;;;;;;;;;4945934;28;20009;-69
2023/12/20 07:19:51;;;;;;;;;;;;;;;;;;4951726;28;19931;-69
2023/12/20 07:22:17;;;;;;;;;;;;;;;;;;4953371;28;20070;-70
2023/12/20 07:24:43;;;;;;;;;;;;;;;;;;4954834;29;20017;-69
2023/12/20 07:27:09;;;;;;;;;;;;;;;;;;4946874;28;19930;-69
2023/12/20 07:29:35;;;;;;;;;;;;;;;;;;4953466;29;19962;-69
2023/12/20 07:32:01;;;;;;;;;;;;;;;;;;4946492;28;19945;-70
2023/12/20 07:34:27;;;;;;;;;;;;;;;;;;4950540;29;20036;-70
2023/12/20 07:36:53;;;;;;;;;;;;;;;;;;4951913;29;20404;-70
2023/12/20 07:39:19;;;;;;;;;;;;;;;;;;4951312;28;20383;-70
2023/12/20 07:41:45;;;;;;;;;;;;;;;;;;4949105;28;19937;-70
2023/12/20 07:44:11;;;;;;;;;;;;;;;;;;4960254;28;19927;-71
2023/12/20 07:46:37;;;;;;;;;;;;;;;;;;4941892;28;19950;-71
2023/12/20 07:49:03;;;;;;;;;;;;;;;;;;4950929;29;19945;-71
2023/12/20 07:51:29;;;;;;;;;;;;;;;;;;4949400;28;19922;-71
2023/12/20 07:53:54;;;;;;;;;;;;;;;;;;4951379;28;19926;-69
2023/12/20 07:56:20;;;;;;;;;;;;;;;;;;4971726;28;19926;-70
2023/12/20 07:58:48;;;;;;;;;;;;;;;;;;4988952;28;19926;-70
2023/12/20 08:01:14;;;;;;;;;;;;;;;;;;4967497;28;19922;-70
2023/12/20 08:03:39;;;;;;;;;;;;;;;;;;4984365;28;19929;-69
2023/12/20 08:06:05;;;;;;;;;;;;;;;;;;4990545;28;19929;-70
2023/12/20 08:08:31;;;;;;;;;;;;;;;;;;4987077;28;19930;-70
2023/12/20 08:10:59;;;;;;;;;;;;;;;;;;4987829;28;19925;-70
2023/12/20 08:13:26;;;;;;;;;;;;;;;;;;4981508;28;20354;-70
2023/12/20 08:15:51;;;;;;;;;;;;;;;;;;4986801;28;19930;-70
2023/12/20 08:18:17;;;;;;;;;;;;;;;;;;4989888;28;20029;-69
2023/12/20 08:20:43;;;;;;;;;;;;;;;;;;4989722;28;19929;-68
2023/12/20 08:23:09;;;;;;;;;;;;;;;;;;4989866;28;19957;-69
2023/12/20 08:25:35;;;;;;;;;;;;;;;;;;4991299;28;20472;-69
2023/12/20 08:28:01;;;;;;;;;;;;;;;;;;4987505;28;19922;-70
2023/12/20 08:30:27;;;;;;;;;;;;;;;;;;4987204;28;19926;-69
2023/12/20 08:32:53;;;;;;;;;;;;;;;;;;4987970;28;19921;-69
2023/12/20 08:35:19;;;;;;;;;;;;;;;;;;4990574;28;20271;-69
2023/12/20 08:37:45;;;;;;;;;;;;;;;;;;4987344;28;20584;-69
2023/12/20 08:40:11;;;;;;;;;;;;;;;;;;4979534;28;19929;-70
2023/12/20 08:42:37;;;;;;;;;;;;;;;;;;4983239;28;19929;-70
2023/12/20 08:45:04;;;;;;;;;;;;;;;;;;4967888;28;19925;-70
2023/12/20 08:47:30;;;;;;;;;;;;;;;;;;4988395;28;19930;-70
2023/12/20 08:49:59;;;;;;;;;;;;;;;;;;4984754;28;20320;-69
2023/12/20 08:52:27;;;;;;;;;;;;;;;;;;4983292;28;19938;-70
2023/12/20 08:54:53;;;;;;;;;;;;;;;;;;4967790;28;19969;-70
2023/12/20 08:57:19;;;;;;;;;;;;;;;;;;4969353;28;19937;-69
2023/12/20 08:59:45;;;;;;;;;;;;;;;;;;4990948;28;19926;-69
2023/12/20 09:02:11;;;;;;;;;;;;;;;;;;4987148;28;20466;-69
2023/12/20 09:04:37;;;;;;;;;;;;;;;;;;4985374;28;19926;-70
2023/12/20 09:07:03;;;;;;;;;;;;;;;;;;4965184;28;19980;-70
2023/12/20 09:09:29;;;;;;;;;;;;;;;;;;4978090;28;19934;-69
2023/12/20 09:11:55;;;;;;;;;;;;;;;;;;4981941;28;19969;-69
2023/12/20 09:14:21;;;;;;;;;;;;;;;;;;4984859;28;19976;-69
2023/12/20 09:16:47;;;;;;;;;;;;;;;;;;4985376;28;20331;-69
2023/12/20 09:19:13;;;;;;;;;;;;;;;;;;4987389;28;19921;-69
2023/12/20 09:21:39;;;;;;;;;;;;;;;;;;4974994;28;20295;-69
2023/12/20 09:24:05;;;;;;;;;;;;;;;;;;4989145;28;19922;-69
2023/12/20 09:26:31;;;;;;;;;;;;;;;;;;4989639;28;19933;-69
2023/12/20 09:28:57;;;;;;;;;;;;;;;;;;4985463;28;19922;-71
2023/12/20 09:31:23;;;;;;;;;;;;;;;;;;4991061;28;19933;-69
2023/12/20 09:33:49;;;;;;;;;;;;;;;;;;4975470;28;19922;-69
2023/12/20 09:36:15;;;;;;;;;;;;;;;;;;4983397;28;20286;-69
2023/12/20 09:38:42;;;;;;;;;;;;;;;;;;4964389;28;19928;-69
2023/12/20 09:41:07;;;;;;;;;;;;;;;;;;4987860;28;19929;-69
2023/12/20 09:43:33;;;;;;;;;;;;;;;;;;4991064;28;20283;-69
2023/12/20 09:45:59;;;;;;;;;;;;;;;;;;4985267;28;20027;-69
2023/12/20 09:48:25;;;;;;;;;;;;;;;;;;4987032;28;19968;-69
2023/12/20 09:50:51;;;;;;;;;;;;;;;;;;4994342;28;19961;-69
2023/12/20 09:53:17;;;;;;;;;;;;;;;;;;4976026;28;20113;-69
2023/12/20 09:55:43;;;;;;;;;;;;;;;;;;4978479;28;20603;-69
2023/12/20 09:58:09;;;;;;;;;;;;;;;;;;4994040;28;20450;-69
2023/12/20 10:00:35;;;;;;;;;;;;;;;;;;4990028;28;20368;-69
2023/12/20 10:03:01;;;;;;;;;;;;;;;;;;4989730;28;19973;-69
2023/12/20 10:05:27;;;;;;;;;;;;;;;;;;4987857;28;19930;-69
2023/12/20 10:07:53;;;;;;;;;;;;;;;;;;4991699;28;19922;-69
2023/12/20 10:10:19;;;;;;;;;;;;;;;;;;4991193;28;19945;-69
2023/12/20 10:12:45;;;;;;;;;;;;;;;;;;4994030;28;19925;-69
2023/12/20 10:15:11;;;;;;;;;;;;;;;;;;4994414;28;19929;-69
2023/12/20 10:17:37;;;;;;;;;;;;;;;;;;4980850;28;20272;-68
2023/12/20 10:20:03;;;;;;;;;;;;;;;;;;4991749;28;19921;-67
2023/12/20 10:22:29;;;;;;;;;;;;;;;;;;4992827;28;20012;-68
2023/12/20 10:24:55;;;;;;;;;;;;;;;;;;4993987;28;19926;-68
2023/12/20 10:27:20;;;;;;;;;;;;;;;;;;4992425;28;20287;-68
2023/12/20 10:29:46;;;;;;;;;;;;;;;;;;4990503;28;19922;-68
2023/12/20 10:32:12;;;;;;;;;;;;;;;;;;4976842;28;19925;-68
2023/12/20 10:34:38;;;;;;;;;;;;;;;;;;4989858;28;20440;-68
2023/12/20 10:37:04;;;;;;;;;;;;;;;;;;4988380;28;20020;-68
2023/12/20 10:39:30;;;;;;;;;;;;;;;;;;4992363;28;20048;-68
2023/12/20 10:41:56;;;;;;;;;;;;;;;;;;4991638;28;19929;-68
2023/12/20 10:44:22;;;;;;;;;;;;;;;;;;4987305;28;19930;-68
2023/12/20 10:46:51;;;;;;;;;;;;;;;;;;4982940;28;20290;-69
2023/12/20 10:49:17;;;;;;;;;;;;;;;;;;4987710;28;19973;-68
2023/12/20 10:51:43;;;;;;;;;;;;;;;;;;4962309;28;19953;-68
2023/12/20 10:54:08;;;;;;;;;;;;;;;;;;4988364;28;20000;-68
2023/12/20 10:56:35;;;;;;;;;;;;;;;;;;4966909;28;20379;-68
2023/12/20 10:59:02;;;;;;;;;;;;;;;;;;4970264;28;19965;-68
2023/12/20 11:01:28;;;;;;;;;;;;;;;;;;4990932;28;19929;-68
2023/12/20 11:03:54;;;;;;;;;;;;;;;;;;4992987;28;19952;-68
2023/12/20 11:06:20;;;;;;;;;;;;;;;;;;4990546;28;19942;-68
2023/12/20 11:08:48;;;;;;;;;;;;;;;;;;4989521;28;20137;-68
2023/12/20 11:11:14;;;;;;;;;;;;;;;;;;4971974;28;20363;-68
2023/12/20 11:13:39;;;;;;;;;;;;;;;;;;4983674;28;19922;-68
2023/12/20 11:16:05;;;;;;;;;;;;;;;;;;4986292;28;19926;-68
2023/12/20 11:18:31;;;;;;;;;;;;;;;;;;4987012;28;19922;-67
2023/12/20 11:20:57;;;;;;;;;;;;;;;;;;4984293;28;20329;-67
2023/12/20 11:23:24;;;;;;;;;;;;;;;;;;4983188;28;19953;-67
2023/12/20 11:25:50;;;;;;;;;;;;;;;;;;4986803;28;19976;-68
2023/12/20 11:28:17;;;;;;;;;;;;;;;;;;4989898;28;19926;-68
2023/12/20 11:30:43;;;;;;;;;;;;;;;;;;4989526;28;19926;-67
2023/12/20 11:33:09;;;;;;;;;;;;;;;;;;4988548;28;20444;-66
2023/12/20 11:35:36;;;;;;;;;;;;;;;;;;4970689;28;19984;-67
2023/12/20 11:38:02;;;;;;;;;;;;;;;;;;4979129;28;20050;-68
2023/12/20 11:40:28;;;;;;;;;;;;;;;;;;4981153;28;20353;-68
2023/12/20 11:42:54;;;;;;;;;;;;;;;;;;4991099;28;20032;-68
2023/12/20 11:45:21;;;;;;;;;;;;;;;;;;4974849;28;19929;-68
2023/12/20 11:47:49;;;;;;;;;;;;;;;;;;4979029;28;19941;-68
2023/12/20 11:50:15;;;;;;;;;;;;;;;;;;4989463;28;19921;-67
2023/12/20 11:52:41;;;;;;;;;;;;;;;;;;4989508;28;19932;-68
2023/12/20 11:55:07;;;;;;;;;;;;;;;;;;4991432;28;20283;-69
2023/12/20 11:57:33;;;;;;;;;;;;;;;;;;4990935;28;19929;-69
2023/12/20 11:59:59;;;;;;;;;;;;;;;;;;4991404;28;19921;-68
2023/12/20 12:02:25;;;;;;;;;;;;;;;;;;4982800;28;19965;-68
2023/12/20 12:04:51;;;;;;;;;;;;;;;;;;4989809;28;19926;-68
2023/12/20 12:07:17;;;;;;;;;;;;;;;;;;4991483;28;19973;-68
2023/12/20 12:09:42;;;;;;;;;;;;;;;;;;4982162;28;20390;-68
2023/12/20 12:12:08;;;;;;;;;;;;;;;;;;4978908;28;20324;-68
2023/12/20 12:14:36;;;;;;;;;;;;;;;;;;4969840;28;19972;-68
2023/12/20 12:17:02;;;;;;;;;;;;;;;;;;4973490;28;19934;-68
2023/12/20 12:19:29;;;;;;;;;;;;;;;;;;4971929;28;20787;-67
2023/12/20 12:21:54;;;;;;;;;;;;;;;;;;4986803;28;19921;-67
2023/12/20 12:24:23;;;;;;;;;;;;;;;;;;4987623;28;19928;-68
2023/12/20 12:26:49;;;;;;;;;;;;;;;;;;4990754;28;19932;-68
2023/12/20 12:29:15;;;;;;;;;;;;;;;;;;4988615;28;20283;-68
2023/12/20 12:31:41;;;;;;;;;;;;;;;;;;4980550;28;19921;-68
2023/12/20 12:34:09;;;;;;;;;;;;;;;;;;4974487;28;19922;-68
2023/12/20 12:36:35;;;;;;;;;;;;;;;;;;4990108;28;19925;-68
2023/12/20 12:39:00;;;;;;;;;;;;;;;;;;4982696;28;20524;-68
2023/12/20 12:41:26;;;;;;;;;;;;;;;;;;4985055;28;20016;-69
2023/12/20 12:43:52;;;;;;;;;;;;;;;;;;4990277;28;20036;-69
2023/12/20 12:46:18;;;;;;;;;;;;;;;;;;4973727;28;19922;-68
2023/12/20 12:48:45;;;;;;;;;;;;;;;;;;4989882;28;19992;-68
2023/12/20 12:51:13;;;;;;;;;;;;;;;;;;4989149;28;19968;-68
2023/12/20 12:53:39;;;;;;;;;;;;;;;;;;4972767;28;20436;-68
2023/12/20 12:56:05;;;;;;;;;;;;;;;;;;5028839;23;20394;-65
2023/12/20 12:58:31;;;;;;;;;;;;;;;;;;5001063;28;20016;-68
2023/12/20 13:00:57;;;;;;;;;;;;;;;;;;4976614;28;20012;-68
2023/12/20 13:03:24;;;;;;;;;;;;;;;;;;4990815;28;20012;-68
2023/12/20 13:05:50;;;;;;;;;;;;;;;;;;4990945;28;19922;-68
2023/12/20 13:08:15;;;;;;;;;;;;;;;;;;4980801;28;19932;-68
2023/12/20 13:10:41;;;;;;;;;;;;;;;;;;5001253;28;20567;-68
2023/12/20 13:13:07;;;;;;;;;;;;;;;;;;4983046;28;19926;-68
2023/12/20 13:15:33;;;;;;;;;;;;;;;;;;4981852;28;19929;-68
2023/12/20 13:18:00;;;;;;;;;;;;;;;;;;4964423;28;20012;-68
2023/12/20 13:20:26;;;;;;;;;;;;;;;;;;4990061;28;19921;-68
2023/12/20 13:22:52;;;;;;;;;;;;;;;;;;4982054;28;19933;-68
2023/12/20 13:25:17;;;;;;;;;;;;;;;;;;4988041;28;19933;-67
2023/12/20 13:27:43;;;;;;;;;;;;;;;;;;5011716;28;19928;-69
2023/12/20 13:30:09;;;;;;;;;;;;;;;;;;4997620;28;19928;-68
2023/12/20 13:32:35;;;;;;;;;;;;;;;;;;4992473;28;19972;-68
2023/12/20 13:35:01;;;;;;;;;;;;;;;;;;4996478;28;20449;-69
2023/12/20 13:37:27;;;;;;;;;;;;;;;;;;4988011;28;19926;-67
2023/12/20 13:39:53;;;;;;;;;;;;;;;;;;4995365;28;20241;-67
2023/12/20 13:42:20;;;;;;;;;;;;;;;;;;4995322;28;19928;-70
2023/12/20 13:44:47;;;;;;;;;;;;;;;;;;4986988;28;19922;-70
2023/12/20 13:47:13;;;;;;;;;;;;;;;;;;5009047;28;19926;-69
2023/12/20 13:49:39;;;;;;;;;;;;;;;;;;4989392;28;19922;-69
2023/12/20 13:52:05;;;;;;;;;;;;;;;;;;4979636;28;20330;-69
2023/12/20 13:54:31;;;;;;;;;;;;;;;;;;4995916;28;19933;-69
2023/12/20 13:56:57;;;;;;;;;;;;;;;;;;5012662;28;19926;-69
2023/12/20 13:59:23;;;;;;;;;;;;;;;;;;4993887;28;20008;-69
2023/12/20 14:01:50;;;;;;;;;;;;;;;;;;4992842;28;20004;-68
2023/12/20 14:04:16;;;;;;;;;;;;;;;;;;4995330;28;19968;-67
2023/12/20 14:06:42;;;;;;;;;;;;;;;;;;4997116;28;19921;-68
2023/12/20 14:09:08;;;;;;;;;;;;;;;;;;4990045;28;19925;-68
2023/12/20 14:11:34;;;;;;;;;;;;;;;;;;4996680;28;19977;-68
2023/12/20 14:14:01;;;;;;;;;;;;;;;;;;4988188;28;19968;-67
2023/12/20 14:16:27;;;;;;;;;;;;;;;;;;4984358;28;19932;-68
2023/12/20 14:18:57;;;;;;;;;;;;;;;;;;5006398;28;19922;-68
2023/12/20 14:21:23;;;;;;;;;;;;;;;;;;5014748;28;19976;-68
2023/12/20 14:23:51;;;;;;;;;;;;;;;;;;4996584;28;19925;-68
2023/12/20 14:26:17;;;;;;;;;;;;;;;;;;4991985;28;20026;-68
2023/12/20 14:28:43;;;;;;;;;;;;;;;;;;5014393;28;19983;-68
2023/12/20 14:31:10;;;;;;;;;;;;;;;;;;4982575;28;20012;-68
2023/12/20 14:33:37;;;;;;;;;;;;;;;;;;5007835;28;19922;-68
2023/12/20 14:36:05;;;;;;;;;;;;;;;;;;5006446;28;19999;-68
2023/12/20 14:38:30;;;;;;;;;;;;;;;;;;4994425;28;19933;-67
2023/12/20 14:40:56;;;;;;;;;;;;;;;;;;5010930;28;19929;-68
2023/12/20 14:43:22;;;;;;;;;;;;;;;;;;4977972;28;20520;-69
2023/12/20 14:45:48;;;;;;;;;;;;;;;;;;4992532;28;19928;-68
2023/12/20 14:48:15;;;;;;;;;;;;;;;;;;4987458;28;20514;-68
2023/12/20 14:50:42;;;;;;;;;;;;;;;;;;4989296;28;19926;-69
2023/12/20 14:53:08;;;;;;;;;;;;;;;;;;4985670;28;20064;-69
2023/12/20 14:55:34;;;;;;;;;;;;;;;;;;4989997;28;20020;-69
2023/12/20 14:58:00;;;;;;;;;;;;;;;;;;4991333;28;20512;-69
2023/12/20 15:00:26;;;;;;;;;;;;;;;;;;4990506;28;19932;-68
2023/12/20 15:02:55;;;;;;;;;;;;;;;;;;4993204;28;19922;-69
2023/12/20 15:05:21;;;;;;;;;;;;;;;;;;5007720;28;19933;-68
2023/12/20 15:07:48;;;;;;;;;;;;;;;;;;5007505;28;19921;-68
2023/12/20 15:10:14;;;;;;;;;;;;;;;;;;4990984;28;20027;-67
2023/12/20 15:12:40;;;;;;;;;;;;;;;;;;4993506;28;20371;-67
2023/12/20 15:15:06;;;;;;;;;;;;;;;;;;4983266;28;19926;-68
2023/12/20 15:17:32;;;;;;;;;;;;;;;;;;4988245;28;19932;-68
2023/12/20 15:19:57;;;;;;;;;;;;;;;;;;5006090;28;19921;-68
2023/12/20 15:22:26;;;;;;;;;;;;;;;;;;4969460;28;19925;-68
2023/12/20 15:24:53;;;;;;;;;;;;;;;;;;4981404;28;19925;-69
2023/12/20 15:27:19;;;;;;;;;;;;;;;;;;4971644;28;19922;-69
2023/12/20 15:29:45;;;;;;;;;;;;;;;;;;4989065;28;19948;-68
2023/12/20 15:32:11;;;;;;;;;;;;;;;;;;5001830;28;20635;-69
2023/12/20 15:34:37;;;;;;;;;;;;;;;;;;4985844;28;20491;-69
2023/12/20 15:37:04;;;;;;;;;;;;;;;;;;4987421;28;20004;-70
2023/12/20 15:39:30;;;;;;;;;;;;;;;;;;4987528;28;19981;-69
2023/12/20 15:41:55;;;;;;;;;;;;;;;;;;4979068;28;20015;-69
2023/12/20 15:44:21;;;;;;;;;;;;;;;;;;4991087;28;19995;-69
2023/12/20 15:46:47;;;;;;;;;;;;;;;;;;4984828;28;19926;-69
2023/12/20 15:49:15;;;;;;;;;;;;;;;;;;4983959;28;19998;-69
2023/12/20 15:51:41;;;;;;;;;;;;;;;;;;4985012;28;19921;-69
2023/12/20 15:54:08;;;;;;;;;;;;;;;;;;4987147;28;20270;-68
2023/12/20 15:56:34;;;;;;;;;;;;;;;;;;5005824;28;19925;-68
2023/12/20 15:58:59;;;;;;;;;;;;;;;;;;4991568;28;19932;-69
2023/12/20 16:01:25;;;;;;;;;;;;;;;;;;4984918;28;19944;-69
2023/12/20 16:03:51;;;;;;;;;;;;;;;;;;4985827;28;20291;-70
2023/12/20 16:06:17;;;;;;;;;;;;;;;;;;4985306;28;19925;-70
2023/12/20 16:08:43;;;;;;;;;;;;;;;;;;4981537;28;19932;-68
2023/12/20 16:11:09;;;;;;;;;;;;;;;;;;4987140;28;19929;-68
2023/12/20 16:13:35;;;;;;;;;;;;;;;;;;4989149;28;20616;-68
2023/12/20 16:16:01;;;;;;;;;;;;;;;;;;4979608;28;19926;-69
2023/12/20 16:18:28;;;;;;;;;;;;;;;;;;4984959;28;19932;-69
2023/12/20 16:20:54;;;;;;;;;;;;;;;;;;4982436;28;19929;-69
2023/12/20 16:23:20;;;;;;;;;;;;;;;;;;4985463;28;19925;-69
2023/12/20 16:25:46;;;;;;;;;;;;;;;;;;4982804;28;19963;-69
2023/12/20 16:28:11;;;;;;;;;;;;;;;;;;4985685;28;19925;-69
2023/12/20 16:30:37;;;;;;;;;;;;;;;;;;4984114;28;19937;-69
2023/12/20 16:33:03;;;;;;;;;;;;;;;;;;4983241;28;19926;-69
2023/12/20 16:35:29;;;;;;;;;;;;;;;;;;4983123;28;19930;-70
2023/12/20 16:37:55;;;;;;;;;;;;;;;;;;4985706;28;19933;-68